sensor_id;sensor_type;location;lat;lon;timestamp;pressure;altitude;pressure_sealevel;temperature;humidity
59289;BME280;45056;47.602;9.886;2022-10-30T00:01:25;93523.16;;;14.93;60.07
59289;BME280;45056;47.602;9.886;2022-10-30T00:03:53;93519.38;;;14.90;60.04
59289;BME280;45056;47.602;9.886;2022-10-30T00:06:21;93514.34;;;14.89;60.15
59289;BME280;45056;47.602;9.886;2022-10-30T00:08:49;93516.78;;;14.86;60.15
59289;BME280;45056;47.602;9.886;2022-10-30T00:11:17;93513.72;;;14.84;60.15
59289;BME280;45056;47.602;9.886;2022-10-30T00:13:46;93512.97;;;14.84;60.28
59289;BME280;45056;47.602;9.886;2022-10-30T00:16:14;93516.16;;;14.82;60.17
59289;BME280;45056;47.602;9.886;2022-10-30T00:18:42;93517.06;;;14.79;60.21
59289;BME280;45056;47.602;9.886;2022-10-30T00:21:13;93506.56;;;14.78;59.95
59289;BME280;45056;47.602;9.886;2022-10-30T00:23:44;93509.28;;;14.78;60.07
59289;BME280;45056;47.602;9.886;2022-10-30T00:26:14;93517.22;;;14.76;60.07
59289;BME280;45056;47.602;9.886;2022-10-30T00:28:42;93507.16;;;14.73;60.11
59289;BME280;45056;47.602;9.886;2022-10-30T00:31:12;93514.63;;;14.72;60.20
59289;BME280;45056;47.602;9.886;2022-10-30T00:33:40;93505.63;;;14.71;60.04
59289;BME280;45056;47.602;9.886;2022-10-30T00:36:08;93505.63;;;14.71;60.09
59289;BME280;45056;47.602;9.886;2022-10-30T00:38:36;93503.34;;;14.70;59.81
59289;BME280;45056;47.602;9.886;2022-10-30T00:41:04;93511.56;;;14.70;59.78
59289;BME280;45056;47.602;9.886;2022-10-30T00:43:35;93517.16;;;14.66;59.80
59289;BME280;45056;47.602;9.886;2022-10-30T00:46:15;93514.56;;;14.63;59.79
59289;BME280;45056;47.602;9.886;2022-10-30T00:48:53;93514.25;;;14.61;59.95
59289;BME280;45056;47.602;9.886;2022-10-30T00:51:27;93516.84;;;14.55;59.88
59289;BME280;45056;47.602;9.886;2022-10-30T00:53:59;93511.06;;;14.53;60.02
59289;BME280;45056;47.602;9.886;2022-10-30T00:56:30;93509.22;;;14.50;60.13
59289;BME280;45056;47.602;9.886;2022-10-30T00:59:03;93512.41;;;14.48;59.99
59289;BME280;45056;47.602;9.886;2022-10-30T01:01:39;93510.91;;;14.47;59.79
59289;BME280;45056;47.602;9.886;2022-10-30T01:04:10;93512.13;;;14.46;59.86
59289;BME280;45056;47.602;9.886;2022-10-30T01:06:43;93511.81;;;14.44;59.95
59289;BME280;45056;47.602;9.886;2022-10-30T01:09:14;93502.97;;;14.40;59.91
59289;BME280;45056;47.602;9.886;2022-10-30T01:11:44;93505.41;;;14.38;59.92
59289;BME280;45056;47.602;9.886;2022-10-30T01:14:16;93509.38;;;14.37;59.83
59289;BME280;45056;47.602;9.886;2022-10-30T01:17:04;93509.03;;;14.35;60.10
59289;BME280;45056;47.602;9.886;2022-10-30T01:19:54;93509.50;;;14.33;60.10
59289;BME280;45056;47.602;9.886;2022-10-30T01:22:45;93509.94;;;14.32;60.19
59289;BME280;45056;47.602;9.886;2022-10-30T01:25:35;93509.19;;;14.31;59.98
59289;BME280;45056;47.602;9.886;2022-10-30T01:28:25;93505.38;;;14.28;59.96
59289;BME280;45056;47.602;9.886;2022-10-30T01:31:12;93509.00;;;14.25;59.97
59289;BME280;45056;47.602;9.886;2022-10-30T01:34:05;93504.44;;;14.22;59.93
59289;BME280;45056;47.602;9.886;2022-10-30T01:36:49;93504.44;;;14.22;59.75
59289;BME280;45056;47.602;9.886;2022-10-30T01:39:27;93507.19;;;14.22;59.78
59289;BME280;45056;47.602;9.886;2022-10-30T01:41:59;93495.91;;;14.20;59.91
59289;BME280;45056;47.602;9.886;2022-10-30T01:44:30;93499.09;;;14.19;59.89
59289;BME280;45056;47.602;9.886;2022-10-30T01:47:14;93501.22;;;14.14;59.88
59289;BME280;45056;47.602;9.886;2022-10-30T01:50:08;93497.13;;;14.10;59.93
59289;BME280;45056;47.602;9.886;2022-10-30T01:52:56;93491.78;;;14.06;60.03
59289;BME280;45056;47.602;9.886;2022-10-30T01:55:40;93498.88;;;14.04;60.00
59289;BME280;45056;47.602;9.886;2022-10-30T01:58:21;93502.53;;;14.00;59.95
59289;BME280;45056;47.602;9.886;2022-10-30T02:00:57;93498.72;;;13.98;60.02
59289;BME280;45056;47.602;9.886;2022-10-30T02:03:27;93497.66;;;13.95;60.21
59289;BME280;45056;47.602;9.886;2022-10-30T02:05:57;93492.66;;;13.94;60.19
59289;BME280;45056;47.602;9.886;2022-10-30T02:08:26;93495.81;;;13.92;60.08
59289;BME280;45056;47.602;9.886;2022-10-30T02:10:54;93497.81;;;13.92;60.10
59289;BME280;45056;47.602;9.886;2022-10-30T02:13:23;93492.03;;;13.90;59.98
59289;BME280;45056;47.602;9.886;2022-10-30T02:15:51;93495.50;;;13.90;59.92
59289;BME280;45056;47.602;9.886;2022-10-30T02:18:20;93498.25;;;13.90;59.75
59289;BME280;45056;47.602;9.886;2022-10-30T02:20:49;93488.81;;;13.91;60.01
59289;BME280;45056;47.602;9.886;2022-10-30T02:23:21;93486.88;;;13.92;60.06
59289;BME280;45056;47.602;9.886;2022-10-30T02:25:49;93484.56;;;13.90;60.01
59289;BME280;45056;47.602;9.886;2022-10-30T02:28:17;93488.50;;;13.89;59.96
59289;BME280;45056;47.602;9.886;2022-10-30T02:30:45;93488.94;;;13.88;59.99
59289;BME280;45056;47.602;9.886;2022-10-30T02:33:13;93483.94;;;13.86;60.06
59289;BME280;45056;47.602;9.886;2022-10-30T02:35:41;93483.94;;;13.86;60.04
59289;BME280;45056;47.602;9.886;2022-10-30T02:38:10;93478.47;;;13.86;60.20
59289;BME280;45056;47.602;9.886;2022-10-30T02:40:38;93487.44;;;13.87;60.14
59289;BME280;45056;47.602;9.886;2022-10-30T02:43:06;93477.69;;;13.85;60.05
59289;BME280;45056;47.602;9.886;2022-10-30T02:45:35;93478.16;;;13.84;60.13
59289;BME280;45056;47.602;9.886;2022-10-30T02:48:03;93481.78;;;13.81;60.07
59289;BME280;45056;47.602;9.886;2022-10-30T02:50:31;93479.50;;;13.79;59.93
59289;BME280;45056;47.602;9.886;2022-10-30T02:52:59;93478.75;;;13.79;60.02
59289;BME280;45056;47.602;9.886;2022-10-30T02:55:29;93473.72;;;13.77;60.16
59289;BME280;45056;47.602;9.886;2022-10-30T02:57:57;93470.97;;;13.77;59.94
59289;BME280;45056;47.602;9.886;2022-10-30T03:00:25;93470.25;;;13.77;60.04
59289;BME280;45056;47.602;9.886;2022-10-30T03:02:54;93470.25;;;13.77;59.97
59289;BME280;45056;47.602;9.886;2022-10-30T03:05:23;93464.75;;;13.77;59.95
59289;BME280;45056;47.602;9.886;2022-10-30T03:07:53;93464.00;;;13.76;60.04
59289;BME280;45056;47.602;9.886;2022-10-30T03:10:21;93461.72;;;13.75;60.01
59289;BME280;45056;47.602;9.886;2022-10-30T03:12:50;93459.84;;;13.71;59.99
59289;BME280;45056;47.602;9.886;2022-10-30T03:15:19;93451.03;;;13.67;59.79
59289;BME280;45056;47.602;9.886;2022-10-30T03:17:47;93456.97;;;13.66;59.92
59289;BME280;45056;47.602;9.886;2022-10-30T03:20:18;93457.88;;;13.63;59.95
59289;BME280;45056;47.602;9.886;2022-10-30T03:22:46;93465.28;;;13.62;60.11
59289;BME280;45056;47.602;9.886;2022-10-30T03:25:14;93466.50;;;13.61;59.86
59289;BME280;45056;47.602;9.886;2022-10-30T03:27:43;93467.41;;;13.58;60.14
59289;BME280;45056;47.602;9.886;2022-10-30T03:30:12;93461.19;;;13.58;60.08
59289;BME280;45056;47.602;9.886;2022-10-30T03:32:40;93456.16;;;13.56;60.08
59289;BME280;45056;47.602;9.886;2022-10-30T03:35:08;93461.75;;;13.52;59.99
59289;BME280;45056;47.602;9.886;2022-10-30T03:37:36;93458.69;;;13.50;60.02
59289;BME280;45056;47.602;9.886;2022-10-30T03:40:05;93464.63;;;13.49;60.17
59289;BME280;45056;47.602;9.886;2022-10-30T03:42:38;93469.31;;;13.48;60.02
59289;BME280;45056;47.602;9.886;2022-10-30T03:45:07;93469.78;;;13.47;60.12
59289;BME280;45056;47.602;9.886;2022-10-30T03:47:39;93467.94;;;13.44;60.15
59289;BME280;45056;47.602;9.886;2022-10-30T03:50:08;93467.56;;;13.41;60.07
59289;BME280;45056;47.602;9.886;2022-10-30T03:52:36;93468.03;;;13.40;60.28
59289;BME280;45056;47.602;9.886;2022-10-30T03:55:05;93457.22;;;13.36;60.15
59289;BME280;45056;47.602;9.886;2022-10-30T03:57:35;93460.84;;;13.33;60.17
59289;BME280;45056;47.602;9.886;2022-10-30T04:00:05;93455.84;;;13.32;60.20
59289;BME280;45056;47.602;9.886;2022-10-30T04:02:34;93461.75;;;13.30;59.92
59289;BME280;45056;47.602;9.886;2022-10-30T04:05:04;93457.63;;;13.25;59.77
59289;BME280;45056;47.602;9.886;2022-10-30T04:07:32;93461.56;;;13.24;59.97
59289;BME280;45056;47.602;9.886;2022-10-30T04:10:01;93459.59;;;13.25;60.22
59289;BME280;45056;47.602;9.886;2022-10-30T04:12:29;93453.34;;;13.24;60.07
59289;BME280;45056;47.602;9.886;2022-10-30T04:14:57;93453.34;;;13.24;60.06
59289;BME280;45056;47.602;9.886;2022-10-30T04:17:25;93453.81;;;13.23;60.09
59289;BME280;45056;47.602;9.886;2022-10-30T04:19:53;93460.50;;;13.22;60.08
59289;BME280;45056;47.602;9.886;2022-10-30T04:22:23;93459.41;;;13.19;60.17
59289;BME280;45056;47.602;9.886;2022-10-30T04:24:51;93451.34;;;13.16;60.25
59289;BME280;45056;47.602;9.886;2022-10-30T04:27:20;93464.25;;;13.15;60.30
59289;BME280;45056;47.602;9.886;2022-10-30T04:29:48;93448.63;;;13.16;60.28
59289;BME280;45056;47.602;9.886;2022-10-30T04:32:16;93451.34;;;13.16;60.29
59289;BME280;45056;47.602;9.886;2022-10-30T04:34:44;93450.91;;;13.17;60.19
59289;BME280;45056;47.602;9.886;2022-10-30T04:37:12;93447.41;;;13.17;60.24
59289;BME280;45056;47.602;9.886;2022-10-30T04:39:42;93443.16;;;13.16;60.18
59289;BME280;45056;47.602;9.886;2022-10-30T04:42:12;93450.25;;;13.13;60.05
59289;BME280;45056;47.602;9.886;2022-10-30T04:44:40;93444.47;;;13.11;60.12
59289;BME280;45056;47.602;9.886;2022-10-30T04:47:08;93446.91;;;13.09;60.16
59289;BME280;45056;47.602;9.886;2022-10-30T04:49:36;93438.81;;;13.05;60.38
59289;BME280;45056;47.602;9.886;2022-10-30T04:52:04;93436.97;;;13.02;60.57
59289;BME280;45056;47.602;9.886;2022-10-30T04:54:32;93444.13;;;12.99;60.60
59289;BME280;45056;47.602;9.886;2022-10-30T04:57:02;93440.28;;;12.97;60.54
59289;BME280;45056;47.602;9.886;2022-10-30T04:59:30;93444.22;;;12.96;60.45
59289;BME280;45056;47.602;9.886;2022-10-30T05:01:58;93445.44;;;12.95;60.60
59289;BME280;45056;47.602;9.886;2022-10-30T05:04:26;93445.88;;;12.93;60.59
59289;BME280;45056;47.602;9.886;2022-10-30T05:06:54;93435.41;;;12.92;60.38
59289;BME280;45056;47.602;9.886;2022-10-30T05:09:22;93442.06;;;12.91;60.50
59289;BME280;45056;47.602;9.886;2022-10-30T05:11:50;93442.50;;;12.89;60.56
59289;BME280;45056;47.602;9.886;2022-10-30T05:14:19;93438.25;;;12.88;60.59
59289;BME280;45056;47.602;9.886;2022-10-30T05:16:47;93430.84;;;12.89;60.50
59289;BME280;45056;47.602;9.886;2022-10-30T05:19:16;93435.84;;;12.90;60.39
59289;BME280;45056;47.602;9.886;2022-10-30T05:21:44;93431.16;;;12.91;60.53
59289;BME280;45056;47.602;9.886;2022-10-30T05:24:12;93431.16;;;12.91;60.41
59289;BME280;45056;47.602;9.886;2022-10-30T05:26:40;93429.16;;;12.91;60.35
59289;BME280;45056;47.602;9.886;2022-10-30T05:29:08;93432.34;;;12.90;60.35
59289;BME280;45056;47.602;9.886;2022-10-30T05:31:37;93433.25;;;12.87;60.51
59289;BME280;45056;47.602;9.886;2022-10-30T05:34:05;93431.41;;;12.83;60.66
59289;BME280;45056;47.602;9.886;2022-10-30T05:36:34;93427.16;;;12.82;60.51
59289;BME280;45056;47.602;9.886;2022-10-30T05:39:02;93432.63;;;12.82;60.68
59289;BME280;45056;47.602;9.886;2022-10-30T05:41:30;93427.47;;;12.84;60.53
59289;BME280;45056;47.602;9.886;2022-10-30T05:43:58;93428.22;;;12.85;60.32
59289;BME280;45056;47.602;9.886;2022-10-30T05:46:26;93432.16;;;12.84;60.43
59289;BME280;45056;47.602;9.886;2022-10-30T05:48:55;93421.69;;;12.82;60.58
59289;BME280;45056;47.602;9.886;2022-10-30T05:51:26;93425.31;;;12.79;60.68
59289;BME280;45056;47.602;9.886;2022-10-30T05:53:54;93428.91;;;12.76;60.54
59289;BME280;45056;47.602;9.886;2022-10-30T05:56:22;93430.56;;;12.74;60.61
59289;BME280;45056;47.602;9.886;2022-10-30T05:58:50;93434.94;;;12.71;60.58
59289;BME280;45056;47.602;9.886;2022-10-30T06:01:18;93431.00;;;12.72;60.44
59289;BME280;45056;47.602;9.886;2022-10-30T06:03:46;93430.69;;;12.70;60.74
59289;BME280;45056;47.602;9.886;2022-10-30T06:06:16;93434.94;;;12.71;60.55
59289;BME280;45056;47.602;9.886;2022-10-30T06:08:44;93428.28;;;12.72;60.60
59289;BME280;45056;47.602;9.886;2022-10-30T06:11:12;93427.06;;;12.73;60.55
59289;BME280;45056;47.602;9.886;2022-10-30T06:13:40;93433.31;;;12.74;60.50
59289;BME280;45056;47.602;9.886;2022-10-30T06:16:08;93439.50;;;12.74;60.27
59289;BME280;45056;47.602;9.886;2022-10-30T06:18:36;93431.31;;;12.74;60.32
59289;BME280;45056;47.602;9.886;2022-10-30T06:21:04;93437.56;;;12.75;60.55
59289;BME280;45056;47.602;9.886;2022-10-30T06:23:34;93424.78;;;12.72;60.66
59289;BME280;45056;47.602;9.886;2022-10-30T06:26:02;93438.88;;;12.70;60.73
59289;BME280;45056;47.602;9.886;2022-10-30T06:28:30;93436.59;;;12.68;60.71
59289;BME280;45056;47.602;9.886;2022-10-30T06:30:58;93436.59;;;12.68;60.81
59289;BME280;45056;47.602;9.886;2022-10-30T06:33:26;93438.13;;;12.69;60.95
59289;BME280;45056;47.602;9.886;2022-10-30T06:35:54;93443.59;;;12.69;60.86
59289;BME280;45056;47.602;9.886;2022-10-30T06:38:22;93435.72;;;12.72;60.82
59289;BME280;45056;47.602;9.886;2022-10-30T06:40:52;93439.50;;;12.74;60.71
59289;BME280;45056;47.602;9.886;2022-10-30T06:43:20;93446.50;;;12.75;60.70
59289;BME280;45056;47.602;9.886;2022-10-30T06:45:48;93442.56;;;12.76;60.71
59289;BME280;45056;47.602;9.886;2022-10-30T06:48:16;93437.09;;;12.76;60.65
59289;BME280;45056;47.602;9.886;2022-10-30T06:50:44;93439.41;;;12.78;60.57
59289;BME280;45056;47.602;9.886;2022-10-30T06:53:12;93440.81;;;12.82;60.60
59289;BME280;45056;47.602;9.886;2022-10-30T06:55:40;93443.41;;;12.86;60.63
59289;BME280;45056;47.602;9.886;2022-10-30T06:58:10;93441.28;;;12.90;60.53
59289;BME280;45056;47.602;9.886;2022-10-30T07:00:38;93435.72;;;12.94;60.42
59289;BME280;45056;47.602;9.886;2022-10-30T07:03:06;93444.53;;;12.98;60.35
59289;BME280;45056;47.602;9.886;2022-10-30T07:05:35;93434.25;;;13.02;60.51
59289;BME280;45056;47.602;9.886;2022-10-30T07:08:03;93439.59;;;13.06;60.69
59289;BME280;45056;47.602;9.886;2022-10-30T07:10:32;93440.66;;;13.08;60.86
59289;BME280;45056;47.602;9.886;2022-10-30T07:13:00;93444.06;;;13.12;60.53
59289;BME280;45056;47.602;9.886;2022-10-30T07:15:29;93443.16;;;13.16;60.91
59289;BME280;45056;47.602;9.886;2022-10-30T07:18:00;93447.41;;;13.17;60.84
59289;BME280;45056;47.602;9.886;2022-10-30T07:20:33;93448.94;;;13.18;61.14
59289;BME280;45056;47.602;9.886;2022-10-30T07:23:02;93451.53;;;13.21;61.01
59289;BME280;45056;47.602;9.886;2022-10-30T07:25:31;93455.34;;;13.24;60.77
59289;BME280;45056;47.602;9.886;2022-10-30T07:27:59;93449.75;;;13.27;60.63
59289;BME280;45056;47.602;9.886;2022-10-30T07:30:27;93447.19;;;13.33;60.85
59289;BME280;45056;47.602;9.886;2022-10-30T07:32:58;93445.41;;;13.39;60.89
59289;BME280;45056;47.602;9.886;2022-10-30T07:35:27;93446.41;;;13.46;60.69
59289;BME280;45056;47.602;9.886;2022-10-30T07:38:00;93440.19;;;13.54;60.61
59289;BME280;45056;47.602;9.886;2022-10-30T07:40:29;93449.66;;;13.63;60.79
59289;BME280;45056;47.602;9.886;2022-10-30T07:42:58;93449.81;;;13.68;60.90
59289;BME280;45056;47.602;9.886;2022-10-30T07:45:28;93445.94;;;13.79;60.82
59289;BME280;45056;47.602;9.886;2022-10-30T07:47:58;93454.59;;;13.87;61.19
59289;BME280;45056;47.602;9.886;2022-10-30T07:50:27;93454.66;;;13.96;61.05
59289;BME280;45056;47.602;9.886;2022-10-30T07:52:55;93456.81;;;14.10;60.85
59289;BME280;45056;47.602;9.886;2022-10-30T07:55:24;93452.63;;;14.28;61.16
59289;BME280;45056;47.602;9.886;2022-10-30T07:57:52;93457.38;;;14.55;60.46
59289;BME280;45056;47.602;9.886;2022-10-30T08:00:20;93454.97;;;14.85;59.80
59289;BME280;45056;47.602;9.886;2022-10-30T08:02:50;93458.31;;;15.18;59.31
59289;BME280;45056;47.602;9.886;2022-10-30T08:05:20;93461.94;;;15.42;58.43
59289;BME280;45056;47.602;9.886;2022-10-30T08:07:48;93455.03;;;15.56;57.93
59289;BME280;45056;47.602;9.886;2022-10-30T08:10:17;93457.31;;;15.67;57.31
59289;BME280;45056;47.602;9.886;2022-10-30T08:12:46;93461.53;;;15.78;57.44
59289;BME280;45056;47.602;9.886;2022-10-30T08:15:14;93463.81;;;15.89;57.40
59289;BME280;45056;47.602;9.886;2022-10-30T08:17:43;93460.56;;;15.99;57.40
59289;BME280;45056;47.602;9.886;2022-10-30T08:20:17;93454.56;;;16.10;56.97
59289;BME280;45056;47.602;9.886;2022-10-30T08:22:49;93458.31;;;16.22;56.26
59289;BME280;45056;47.602;9.886;2022-10-30T08:25:20;93450.97;;;16.28;55.73
59289;BME280;45056;47.602;9.886;2022-10-30T08:27:51;93460.38;;;16.37;55.74
59289;BME280;45056;47.602;9.886;2022-10-30T08:30:22;93466.00;;;16.42;55.37
59289;BME280;45056;47.602;9.886;2022-10-30T08:32:50;93458.63;;;16.49;54.82
59289;BME280;45056;47.602;9.886;2022-10-30T08:35:19;93459.06;;;16.56;54.25
59289;BME280;45056;47.602;9.886;2022-10-30T08:37:48;93459.91;;;16.63;53.82
59289;BME280;45056;47.602;9.886;2022-10-30T08:40:18;93451.03;;;16.68;53.60
59289;BME280;45056;47.602;9.886;2022-10-30T08:42:49;93450.38;;;16.73;53.90
59289;BME280;45056;47.602;9.886;2022-10-30T08:45:18;93452.19;;;16.76;54.17
59289;BME280;45056;47.602;9.886;2022-10-30T08:47:47;93454.28;;;16.81;54.03
59289;BME280;45056;47.602;9.886;2022-10-30T08:50:22;93452.41;;;16.87;54.31
59289;BME280;45056;47.602;9.886;2022-10-30T08:52:55;93451.56;;;16.96;53.71
59289;BME280;45056;47.602;9.886;2022-10-30T08:55:26;93439.75;;;17.05;54.21
59289;BME280;45056;47.602;9.886;2022-10-30T08:57:54;93447.94;;;17.14;54.26
59289;BME280;45056;47.602;9.886;2022-10-30T09:00:22;93451.84;;;17.23;54.41
59289;BME280;45056;47.602;9.886;2022-10-30T09:02:51;93450.22;;;17.31;54.58
59289;BME280;45056;47.602;9.886;2022-10-30T09:05:20;93443.13;;;17.39;55.00
59289;BME280;45056;47.602;9.886;2022-10-30T09:07:48;93445.31;;;17.50;54.90
59289;BME280;45056;47.602;9.886;2022-10-30T09:10:18;93447.50;;;17.61;54.56
59289;BME280;45056;47.602;9.886;2022-10-30T09:12:46;93442.44;;;17.74;53.72
59289;BME280;45056;47.602;9.886;2022-10-30T09:15:20;93438.66;;;17.87;52.58
59289;BME280;45056;47.602;9.886;2022-10-30T09:17:54;93441.84;;;18.00;51.91
59289;BME280;45056;47.602;9.886;2022-10-30T09:20:23;93449.81;;;18.13;51.33
59289;BME280;45056;47.602;9.886;2022-10-30T09:22:52;93443.72;;;18.24;50.20
59289;BME280;45056;47.602;9.886;2022-10-30T09:25:22;93449.66;;;18.38;49.50
59289;BME280;45056;47.602;9.886;2022-10-30T09:27:50;93445.03;;;18.50;48.53
59289;BME280;45056;47.602;9.886;2022-10-30T09:30:18;93444.97;;;18.65;48.30
59289;BME280;45056;47.602;9.886;2022-10-30T09:32:53;93444.91;;;18.80;47.72
59289;BME280;45056;47.602;9.886;2022-10-30T09:35:22;93448.09;;;18.93;47.65
59289;BME280;45056;47.602;9.886;2022-10-30T09:37:50;93451.78;;;19.05;47.34
59289;BME280;45056;47.602;9.886;2022-10-30T09:40:26;93451.59;;;19.14;46.83
59289;BME280;45056;47.602;9.886;2022-10-30T09:43:17;93452.97;;;19.25;46.46
59289;BME280;45056;47.602;9.886;2022-10-30T09:46:27;93450.34;;;19.36;45.25
59289;BME280;45056;47.602;9.886;2022-10-30T09:49:26;93443.66;;;19.49;45.27
59289;BME280;45056;47.602;9.886;2022-10-30T09:52:24;93446.50;;;19.60;45.20
59289;BME280;45056;47.602;9.886;2022-10-30T09:55:08;93441.84;;;19.72;45.19
59289;BME280;45056;47.602;9.886;2022-10-30T09:58:00;93442.72;;;19.84;45.51
59289;BME280;45056;47.602;9.886;2022-10-30T10:00:45;93453.59;;;19.93;44.38
59289;BME280;45056;47.602;9.886;2022-10-30T10:03:50;93453.38;;;19.97;42.99
59289;BME280;45056;47.602;9.886;2022-10-30T10:06:28;93455.69;;;20.04;45.22
59289;BME280;45056;47.602;9.886;2022-10-30T10:09:03;93450.47;;;20.12;45.50
59289;BME280;45056;47.602;9.886;2022-10-30T10:11:42;93456.31;;;20.20;43.48
59289;BME280;45056;47.602;9.886;2022-10-30T10:14:22;93454.34;;;20.26;42.72
59289;BME280;45056;47.602;9.886;2022-10-30T10:16:55;93451.63;;;20.31;41.79
59289;BME280;45056;47.602;9.886;2022-10-30T10:19:32;93451.88;;;20.39;41.11
59289;BME280;45056;47.602;9.886;2022-10-30T10:22:18;93448.19;;;20.48;41.37
59289;BME280;45056;47.602;9.886;2022-10-30T10:24:48;93449.22;;;20.56;41.69
59289;BME280;45056;47.602;9.886;2022-10-30T10:27:29;93451.28;;;20.61;42.48
59289;BME280;45056;47.602;9.886;2022-10-30T10:30:14;93445.00;;;20.67;42.74
59289;BME280;45056;47.602;9.886;2022-10-30T10:33:03;93444.53;;;20.74;42.72
59289;BME280;45056;47.602;9.886;2022-10-30T10:36:03;93450.13;;;20.80;42.44
59289;BME280;45056;47.602;9.886;2022-10-30T10:38:50;93441.84;;;20.85;42.11
59289;BME280;45056;47.602;9.886;2022-10-30T10:41:57;93443.38;;;20.92;41.84
59289;BME280;45056;47.602;9.886;2022-10-30T10:44:45;93440.38;;;20.96;41.09
59289;BME280;45056;47.602;9.886;2022-10-30T10:47:39;93436.38;;;20.97;40.77
59289;BME280;45056;47.602;9.886;2022-10-30T10:50:33;93435.59;;;20.96;40.85
59289;BME280;45056;47.602;9.886;2022-10-30T10:53:14;93437.63;;;20.96;40.46
59289;BME280;45056;47.602;9.886;2022-10-30T10:55:51;93431.84;;;20.94;39.85
59289;BME280;45056;47.602;9.886;2022-10-30T10:58:29;93432.84;;;20.90;39.92
59289;BME280;45056;47.602;9.886;2022-10-30T11:01:08;93422.25;;;20.89;40.40
59289;BME280;45056;47.602;9.886;2022-10-30T11:03:53;93427.31;;;20.90;40.33
59289;BME280;45056;47.602;9.886;2022-10-30T11:06:28;93423.78;;;20.96;39.88
59289;BME280;45056;47.602;9.886;2022-10-30T11:09:12;93413.25;;;21.00;40.84
59289;BME280;45056;47.602;9.886;2022-10-30T11:11:45;93417.78;;;21.03;40.28
59289;BME280;45056;47.602;9.886;2022-10-30T11:14:17;93414.78;;;21.07;40.59
59289;BME280;45056;47.602;9.886;2022-10-30T11:17:02;93412.75;;;21.07;40.54
59289;BME280;45056;47.602;9.886;2022-10-30T11:19:40;93415.53;;;21.07;39.62
59289;BME280;45056;47.602;9.886;2022-10-30T11:22:16;93411.00;;;21.10;38.96
59289;BME280;45056;47.602;9.886;2022-10-30T11:24:50;93409.25;;;21.12;38.70
59289;BME280;45056;47.602;9.886;2022-10-30T11:27:25;93408.00;;;21.13;38.64
59289;BME280;45056;47.602;9.886;2022-10-30T11:29:58;93409.50;;;21.14;38.39
59289;BME280;45056;47.602;9.886;2022-10-30T11:32:30;93406.72;;;21.14;38.47
59289;BME280;45056;47.602;9.886;2022-10-30T11:35:10;93404.72;;;21.15;38.38
59289;BME280;45056;47.602;9.886;2022-10-30T11:37:42;93398.44;;;21.14;38.85
59289;BME280;45056;47.602;9.886;2022-10-30T11:40:20;93401.44;;;21.16;39.33
59289;BME280;45056;47.602;9.886;2022-10-30T11:42:58;93397.44;;;21.17;39.43
59289;BME280;45056;47.602;9.886;2022-10-30T11:45:32;93397.69;;;21.19;39.77
59289;BME280;45056;47.602;9.886;2022-10-30T11:48:10;93409.28;;;21.24;40.42
59289;BME280;45056;47.602;9.886;2022-10-30T11:50:55;93409.53;;;21.26;41.85
59289;BME280;45056;47.602;9.886;2022-10-30T11:53:31;93405.50;;;21.27;42.38
59289;BME280;45056;47.602;9.886;2022-10-30T11:56:13;93397.94;;;21.27;42.55
59289;BME280;45056;47.602;9.886;2022-10-30T11:58:46;93396.22;;;21.30;43.42
59289;BME280;45056;47.602;9.886;2022-10-30T12:01:22;93395.19;;;21.33;44.25
59289;BME280;45056;47.602;9.886;2022-10-30T12:03:52;93398.22;;;21.35;45.39
59289;BME280;45056;47.602;9.886;2022-10-30T12:06:27;93391.19;;;21.40;45.15
59289;BME280;45056;47.602;9.886;2022-10-30T12:09:01;93387.66;;;21.45;43.94
59289;BME280;45056;47.602;9.886;2022-10-30T12:11:33;93388.69;;;21.59;41.82
59289;BME280;45056;47.602;9.886;2022-10-30T12:14:04;93382.66;;;21.77;42.21
59289;BME280;45056;47.602;9.886;2022-10-30T12:16:33;93383.41;;;21.95;42.19
59289;BME280;45056;47.602;9.886;2022-10-30T12:19:04;93381.88;;;22.11;41.68
59289;BME280;45056;47.602;9.886;2022-10-30T12:21:45;93368.75;;;22.23;40.31
59289;BME280;45056;47.602;9.886;2022-10-30T12:24:18;93377.78;;;22.35;40.28
59289;BME280;45056;47.602;9.886;2022-10-30T12:26:54;93383.31;;;22.46;40.25
59289;BME280;45056;47.602;9.886;2022-10-30T12:29:34;93369.94;;;22.56;40.89
59289;BME280;45056;47.602;9.886;2022-10-30T12:32:13;93371.16;;;22.67;40.04
59289;BME280;45056;47.602;9.886;2022-10-30T12:34:49;93367.34;;;22.75;39.47
59289;BME280;45056;47.602;9.886;2022-10-30T12:37:28;93359.97;;;22.84;39.77
59289;BME280;45056;47.602;9.886;2022-10-30T12:40:09;93372.31;;;22.88;40.44
59289;BME280;45056;47.602;9.886;2022-10-30T12:42:47;93368.28;;;22.89;41.22
59289;BME280;45056;47.602;9.886;2022-10-30T12:45:27;93364.00;;;22.88;41.91
59289;BME280;45056;47.602;9.886;2022-10-30T12:48:07;93366.53;;;22.86;42.91
59289;BME280;45056;47.602;9.886;2022-10-30T12:50:52;93371.31;;;22.86;43.49
59289;BME280;45056;47.602;9.886;2022-10-30T12:53:41;93369.06;;;22.84;44.53
59289;BME280;45056;47.602;9.886;2022-10-30T12:56:20;93373.59;;;22.82;45.04
59289;BME280;45056;47.602;9.886;2022-10-30T12:59:02;93365.81;;;22.80;45.12
59289;BME280;45056;47.602;9.886;2022-10-30T13:01:54;93358.47;;;22.83;45.03
59289;BME280;45056;47.602;9.886;2022-10-30T13:04:32;93363.22;;;22.94;45.37
59289;BME280;45056;47.602;9.886;2022-10-30T13:07:15;93354.06;;;23.04;45.67
59289;BME280;45056;47.602;9.886;2022-10-30T13:10:02;93359.09;;;23.06;43.40
59289;BME280;45056;47.602;9.886;2022-10-30T13:12:46;93351.06;;;23.02;41.92
59289;BME280;45056;47.602;9.886;2022-10-30T13:15:23;93350.03;;;23.05;40.52
59289;BME280;45056;47.602;9.886;2022-10-30T13:17:57;93353.50;;;23.17;39.84
59289;BME280;45056;47.602;9.886;2022-10-30T13:20:30;93343.38;;;23.26;39.48
59289;BME280;45056;47.602;9.886;2022-10-30T13:23:08;93340.25;;;23.35;39.87
59289;BME280;45056;47.602;9.886;2022-10-30T13:25:59;93348.53;;;23.46;40.62
59289;BME280;45056;47.602;9.886;2022-10-30T13:28:42;93344.16;;;23.57;39.96
59289;BME280;45056;47.602;9.886;2022-10-30T13:31:26;93343.81;;;23.66;40.14